Airfield :
LOGIN :

Register | Disclaimer

   EN    FR    IT 

 










Legend :    VFR   Marginal VFR   IFR   Intensive IFR   Very Intensive IFR
Visi :
Ceiling :
>= 8 km
>= 3000ft
5 to 8 km
1000 to 3000 ft
1500m to 5 km
500 to 1000 ft
800 to 1500m
200 to 500 ft
< 800m
< 200 ft
Symbols :   Thunderstorms  Fog  Heavy snow  Heavy precipitations  Wind > 20 kt
SIGMETs :     Misc.  Thunderstorms  Icing  Turbulence  Mountain Waves  Volcanic Ashes






- Airport Elevation : 1367 ft
- IATA code : FDH


EDNY - Friedrichshafen

CURRENT METAR :
  • 231350Z 05010KT 9999 OVC024 05/01 Q1014

EXPIRED METARs :
  • 231320Z 05012KT 9999 OVC025 05/00 Q1014
  • 231250Z 05009KT 9999 OVC025 05/00 Q1015
  • 231220Z 04010KT 9999 OVC022 05/00 Q1015
  • 231150Z 04009KT 010V070 9999 BKN022 OVC027 05/01 Q1015
  • 231120Z 05010KT 9999 SCT022 OVC038 05/01 Q1014
  • 231050Z 06011KT 9999 BKN021 BKN024 OVC029 05/01 Q1015
  • 231020Z 04008KT 340V080 9999 OVC020 04/01 Q1015
  • 230950Z 03010KT 9999 OVC020 05/00 Q1015
  • 230920Z 03010KT 360V060 9999 FEW017 BKN020 04/01 Q1015
  • 230850Z 03010KT 9999 FEW016 OVC021 04/01 Q1015

TAF TAF EDNY
Valid from the 23 at 12:00 until the 24 at 12:00 UTC


231100Z 2312/2412 03010KT 9999 BKN025
BECMG 2316/2320 VRB02KT
BECMG 2407/2409 24008KT
PROB30
TEMPO 2410/2412 26013KT SHRAGS SCT025CB



MET'MAP, your aeronautical weather chart ! - Copyright ORBIFLY December 2007 - Disclaimer

ORBIFLY MET'MAP TEAM :

Programming & Development : Alexandra Zaïnal
Original concept : Baudouin d'Aumeries
Technical & hardware support : Manuel Goepfert
Assistance : Marc-Olivier Méhu




SOURCES & CREDITS :

   NOAA